sensor_id;sensor_type;location;lat;lon;timestamp;P1;durP1;ratioP1;P2;durP2;ratioP2
42760;SDS011;31672;47.638;19.026;2023-04-25T00:04:55;3.50;;;1.33;;
42760;SDS011;31672;47.638;19.026;2023-04-25T00:10:00;2.57;;;1.23;;
42760;SDS011;31672;47.638;19.026;2023-04-25T00:15:06;2.20;;;0.90;;
42760;SDS011;31672;47.638;19.026;2023-04-25T00:20:10;1.47;;;0.90;;
42760;SDS011;31672;47.638;19.026;2023-04-25T00:25:13;1.90;;;1.20;;
42760;SDS011;31672;47.638;19.026;2023-04-25T00:30:16;1.70;;;1.37;;
42760;SDS011;31672;47.638;19.026;2023-04-25T00:35:19;2.67;;;1.57;;
42760;SDS011;31672;47.638;19.026;2023-04-25T00:40:23;1.90;;;1.60;;
42760;SDS011;31672;47.638;19.026;2023-04-25T00:45:27;1.33;;;0.97;;
42760;SDS011;31672;47.638;19.026;2023-04-25T00:50:33;3.17;;;1.40;;
42760;SDS011;31672;47.638;19.026;2023-04-25T00:55:36;3.40;;;1.90;;
42760;SDS011;31672;47.638;19.026;2023-04-25T01:00:40;3.87;;;2.00;;
42760;SDS011;31672;47.638;19.026;2023-04-25T01:05:44;5.47;;;2.10;;
42760;SDS011;31672;47.638;19.026;2023-04-25T01:10:47;5.00;;;2.53;;
42760;SDS011;31672;47.638;19.026;2023-04-25T01:15:50;3.53;;;2.30;;
42760;SDS011;31672;47.638;19.026;2023-04-25T01:20:53;3.07;;;2.10;;
42760;SDS011;31672;47.638;19.026;2023-04-25T01:25:57;3.33;;;2.37;;
42760;SDS011;31672;47.638;19.026;2023-04-25T01:31:01;2.83;;;2.03;;
42760;SDS011;31672;47.638;19.026;2023-04-25T01:36:04;4.13;;;2.57;;
42760;SDS011;31672;47.638;19.026;2023-04-25T01:41:08;4.07;;;2.77;;
42760;SDS011;31672;47.638;19.026;2023-04-25T01:46:11;3.63;;;2.70;;
42760;SDS011;31672;47.638;19.026;2023-04-25T01:51:15;2.87;;;1.90;;
42760;SDS011;31672;47.638;19.026;2023-04-25T01:56:18;4.20;;;2.60;;
42760;SDS011;31672;47.638;19.026;2023-04-25T02:01:21;2.83;;;1.80;;
42760;SDS011;31672;47.638;19.026;2023-04-25T02:06:24;2.23;;;1.73;;
42760;SDS011;31672;47.638;19.026;2023-04-25T02:11:27;2.97;;;1.87;;
42760;SDS011;31672;47.638;19.026;2023-04-25T02:16:31;4.13;;;1.80;;
42760;SDS011;31672;47.638;19.026;2023-04-25T02:21:34;5.30;;;3.53;;
42760;SDS011;31672;47.638;19.026;2023-04-25T02:26:38;3.87;;;2.13;;
42760;SDS011;31672;47.638;19.026;2023-04-25T02:31:41;3.30;;;1.83;;
42760;SDS011;31672;47.638;19.026;2023-04-25T02:36:44;3.17;;;1.50;;
42760;SDS011;31672;47.638;19.026;2023-04-25T02:41:47;2.07;;;1.40;;
42760;SDS011;31672;47.638;19.026;2023-04-25T02:46:50;2.73;;;1.40;;
42760;SDS011;31672;47.638;19.026;2023-04-25T02:51:54;2.30;;;1.60;;
42760;SDS011;31672;47.638;19.026;2023-04-25T02:56:57;3.53;;;1.73;;
42760;SDS011;31672;47.638;19.026;2023-04-25T03:02:00;3.33;;;1.70;;
42760;SDS011;31672;47.638;19.026;2023-04-25T03:07:03;2.50;;;1.80;;
42760;SDS011;31672;47.638;19.026;2023-04-25T03:12:07;3.53;;;2.00;;
42760;SDS011;31672;47.638;19.026;2023-04-25T03:17:10;3.97;;;2.10;;
42760;SDS011;31672;47.638;19.026;2023-04-25T03:22:13;3.57;;;2.40;;
42760;SDS011;31672;47.638;19.026;2023-04-25T03:27:16;2.97;;;1.80;;
42760;SDS011;31672;47.638;19.026;2023-04-25T03:32:20;2.63;;;1.50;;
42760;SDS011;31672;47.638;19.026;2023-04-25T03:37:23;3.00;;;2.00;;
42760;SDS011;31672;47.638;19.026;2023-04-25T03:42:26;2.47;;;1.47;;
42760;SDS011;31672;47.638;19.026;2023-04-25T03:47:29;2.20;;;1.60;;
42760;SDS011;31672;47.638;19.026;2023-04-25T03:52:32;5.13;;;1.60;;
42760;SDS011;31672;47.638;19.026;2023-04-25T03:57:35;4.37;;;1.70;;
42760;SDS011;31672;47.638;19.026;2023-04-25T04:02:38;2.53;;;1.30;;
42760;SDS011;31672;47.638;19.026;2023-04-25T04:07:44;3.30;;;1.57;;
42760;SDS011;31672;47.638;19.026;2023-04-25T04:12:47;1.60;;;1.20;;
42760;SDS011;31672;47.638;19.026;2023-04-25T04:17:51;3.23;;;1.60;;
42760;SDS011;31672;47.638;19.026;2023-04-25T04:22:54;4.10;;;1.70;;
42760;SDS011;31672;47.638;19.026;2023-04-25T04:27:57;2.57;;;1.80;;
42760;SDS011;31672;47.638;19.026;2023-04-25T04:33:01;3.70;;;2.20;;
42760;SDS011;31672;47.638;19.026;2023-04-25T04:38:05;3.30;;;2.13;;
42760;SDS011;31672;47.638;19.026;2023-04-25T04:43:08;2.50;;;1.90;;
42760;SDS011;31672;47.638;19.026;2023-04-25T04:48:12;2.97;;;2.10;;
42760;SDS011;31672;47.638;19.026;2023-04-25T04:53:16;3.17;;;2.10;;
42760;SDS011;31672;47.638;19.026;2023-04-25T04:58:19;2.30;;;1.67;;
42760;SDS011;31672;47.638;19.026;2023-04-25T05:03:22;3.67;;;1.40;;
42760;SDS011;31672;47.638;19.026;2023-04-25T05:08:25;3.20;;;1.50;;
42760;SDS011;31672;47.638;19.026;2023-04-25T05:13:28;3.70;;;1.97;;
42760;SDS011;31672;47.638;19.026;2023-04-25T05:18:31;1.70;;;1.20;;
42760;SDS011;31672;47.638;19.026;2023-04-25T05:23:34;3.00;;;1.40;;
42760;SDS011;31672;47.638;19.026;2023-04-25T05:28:38;2.70;;;1.20;;
42760;SDS011;31672;47.638;19.026;2023-04-25T05:33:44;1.73;;;1.20;;
42760;SDS011;31672;47.638;19.026;2023-04-25T05:38:47;2.40;;;0.80;;
42760;SDS011;31672;47.638;19.026;2023-04-25T05:43:50;2.13;;;1.00;;
42760;SDS011;31672;47.638;19.026;2023-04-25T05:48:55;2.00;;;1.00;;
42760;SDS011;31672;47.638;19.026;2023-04-25T05:53:58;1.40;;;0.80;;
42760;SDS011;31672;47.638;19.026;2023-04-25T05:59:02;3.83;;;1.10;;
42760;SDS011;31672;47.638;19.026;2023-04-25T06:04:05;2.10;;;1.10;;
42760;SDS011;31672;47.638;19.026;2023-04-25T06:09:08;2.07;;;1.60;;
42760;SDS011;31672;47.638;19.026;2023-04-25T06:14:14;3.17;;;1.53;;
42760;SDS011;31672;47.638;19.026;2023-04-25T06:19:18;4.00;;;2.10;;
42760;SDS011;31672;47.638;19.026;2023-04-25T06:24:21;3.27;;;2.47;;
42760;SDS011;31672;47.638;19.026;2023-04-25T06:29:24;3.43;;;2.53;;
42760;SDS011;31672;47.638;19.026;2023-04-25T06:34:27;3.60;;;2.70;;
42760;SDS011;31672;47.638;19.026;2023-04-25T06:39:30;5.77;;;3.90;;
42760;SDS011;31672;47.638;19.026;2023-04-25T06:44:35;7.13;;;3.27;;
42760;SDS011;31672;47.638;19.026;2023-04-25T06:49:38;4.00;;;3.50;;
42760;SDS011;31672;47.638;19.026;2023-04-25T06:54:41;3.93;;;2.57;;
42760;SDS011;31672;47.638;19.026;2023-04-25T06:59:44;4.93;;;3.23;;
42760;SDS011;31672;47.638;19.026;2023-04-25T07:04:48;6.50;;;3.53;;
42760;SDS011;31672;47.638;19.026;2023-04-25T07:09:51;4.27;;;3.47;;
42760;SDS011;31672;47.638;19.026;2023-04-25T07:14:54;4.87;;;3.63;;
42760;SDS011;31672;47.638;19.026;2023-04-25T07:19:57;3.50;;;2.90;;
42760;SDS011;31672;47.638;19.026;2023-04-25T07:25:00;4.07;;;2.93;;
42760;SDS011;31672;47.638;19.026;2023-04-25T07:30:05;3.60;;;2.70;;
42760;SDS011;31672;47.638;19.026;2023-04-25T07:35:09;3.50;;;2.40;;
42760;SDS011;31672;47.638;19.026;2023-04-25T07:40:12;3.33;;;2.47;;
42760;SDS011;31672;47.638;19.026;2023-04-25T07:45:17;2.93;;;2.20;;
42760;SDS011;31672;47.638;19.026;2023-04-25T07:50:21;4.23;;;2.80;;
42760;SDS011;31672;47.638;19.026;2023-04-25T07:55:25;3.37;;;2.40;;
42760;SDS011;31672;47.638;19.026;2023-04-25T08:00:28;4.43;;;3.10;;
42760;SDS011;31672;47.638;19.026;2023-04-25T08:05:33;3.30;;;2.77;;
42760;SDS011;31672;47.638;19.026;2023-04-25T08:10:37;2.53;;;2.07;;
42760;SDS011;31672;47.638;19.026;2023-04-25T08:15:40;2.60;;;1.90;;
42760;SDS011;31672;47.638;19.026;2023-04-25T08:20:45;4.13;;;2.27;;
42760;SDS011;31672;47.638;19.026;2023-04-25T08:25:49;2.83;;;1.93;;
42760;SDS011;31672;47.638;19.026;2023-04-25T08:30:52;1.80;;;1.50;;
42760;SDS011;31672;47.638;19.026;2023-04-25T08:35:56;1.93;;;1.60;;
42760;SDS011;31672;47.638;19.026;2023-04-25T08:41:00;2.43;;;1.83;;
42760;SDS011;31672;47.638;19.026;2023-04-25T08:46:03;2.53;;;1.90;;
42760;SDS011;31672;47.638;19.026;2023-04-25T08:51:08;3.27;;;2.10;;
42760;SDS011;31672;47.638;19.026;2023-04-25T08:56:18;2.50;;;1.80;;
42760;SDS011;31672;47.638;19.026;2023-04-25T09:01:24;2.30;;;1.80;;
42760;SDS011;31672;47.638;19.026;2023-04-25T09:06:31;2.37;;;1.67;;
42760;SDS011;31672;47.638;19.026;2023-04-25T09:11:36;2.20;;;1.63;;
42760;SDS011;31672;47.638;19.026;2023-04-25T09:22:08;3.40;;;1.90;;
42760;SDS011;31672;47.638;19.026;2023-04-25T09:27:12;2.90;;;2.03;;
42760;SDS011;31672;47.638;19.026;2023-04-25T09:32:22;2.47;;;1.60;;
42760;SDS011;31672;47.638;19.026;2023-04-25T09:37:28;3.03;;;1.70;;
42760;SDS011;31672;47.638;19.026;2023-04-25T09:42:33;1.70;;;1.30;;
42760;SDS011;31672;47.638;19.026;2023-04-25T09:47:37;2.13;;;1.30;;
42760;SDS011;31672;47.638;19.026;2023-04-25T09:52:43;1.42;;;1.15;;
42760;SDS011;31672;47.638;19.026;2023-04-25T09:57:46;1.40;;;0.95;;
42760;SDS011;31672;47.638;19.026;2023-04-25T10:02:57;1.13;;;0.93;;
42760;SDS011;31672;47.638;19.026;2023-04-25T10:08:06;1.58;;;1.17;;
42760;SDS011;31672;47.638;19.026;2023-04-25T10:13:13;1.58;;;0.90;;
42760;SDS011;31672;47.638;19.026;2023-04-25T10:18:16;1.90;;;1.00;;
42760;SDS011;31672;47.638;19.026;2023-04-25T10:23:23;1.40;;;0.70;;
42760;SDS011;31672;47.638;19.026;2023-04-25T10:28:29;1.42;;;0.70;;
42760;SDS011;31672;47.638;19.026;2023-04-25T10:38:44;1.92;;;0.50;;
42760;SDS011;31672;47.638;19.026;2023-04-25T10:43:49;1.30;;;0.47;;
42760;SDS011;31672;47.638;19.026;2023-04-25T10:49:03;4.97;;;2.38;;
42760;SDS011;31672;47.638;19.026;2023-04-25T10:54:07;2.95;;;1.55;;
42760;SDS011;31672;47.638;19.026;2023-04-25T10:59:14;1.50;;;0.95;;
42760;SDS011;31672;47.638;19.026;2023-04-25T11:04:22;4.43;;;3.20;;
42760;SDS011;31672;47.638;19.026;2023-04-25T11:09:39;0.63;;;0.40;;
42760;SDS011;31672;47.638;19.026;2023-04-25T11:14:43;0.75;;;0.30;;
42760;SDS011;31672;47.638;19.026;2023-04-25T11:19:47;0.32;;;0.20;;
42760;SDS011;31672;47.638;19.026;2023-04-25T11:24:51;0.22;;;0.20;;
42760;SDS011;31672;47.638;19.026;2023-04-25T11:29:55;0.10;;;0.10;;
42760;SDS011;31672;47.638;19.026;2023-04-25T11:34:58;0.52;;;0.40;;
42760;SDS011;31672;47.638;19.026;2023-04-25T11:40:02;0.75;;;0.30;;
42760;SDS011;31672;47.638;19.026;2023-04-25T11:45:08;0.30;;;0.10;;
42760;SDS011;31672;47.638;19.026;2023-04-25T11:50:13;0.93;;;0.20;;
42760;SDS011;31672;47.638;19.026;2023-04-25T11:55:17;2.60;;;0.30;;
42760;SDS011;31672;47.638;19.026;2023-04-25T12:00:22;0.22;;;0.20;;
42760;SDS011;31672;47.638;19.026;2023-04-25T12:05:27;0.85;;;0.28;;
42760;SDS011;31672;47.638;19.026;2023-04-25T12:10:36;0.43;;;0.30;;
42760;SDS011;31672;47.638;19.026;2023-04-25T12:15:45;0.63;;;0.30;;
42760;SDS011;31672;47.638;19.026;2023-04-25T12:20:48;1.67;;;0.90;;
42760;SDS011;31672;47.638;19.026;2023-04-25T12:25:51;0.85;;;0.50;;
42760;SDS011;31672;47.638;19.026;2023-04-25T12:36:05;0.68;;;0.32;;
42760;SDS011;31672;47.638;19.026;2023-04-25T12:41:13;1.08;;;0.50;;
42760;SDS011;31672;47.638;19.026;2023-04-25T12:46:16;0.70;;;0.35;;
42760;SDS011;31672;47.638;19.026;2023-04-25T12:51:19;1.77;;;0.60;;
42760;SDS011;31672;47.638;19.026;2023-04-25T12:56:22;1.00;;;0.65;;
42760;SDS011;31672;47.638;19.026;2023-04-25T13:01:27;0.35;;;0.30;;
42760;SDS011;31672;47.638;19.026;2023-04-25T13:06:30;0.52;;;0.30;;
42760;SDS011;31672;47.638;19.026;2023-04-25T13:11:33;0.90;;;0.63;;
42760;SDS011;31672;47.638;19.026;2023-04-25T13:16:36;1.50;;;0.45;;
42760;SDS011;31672;47.638;19.026;2023-04-25T13:21:39;0.88;;;0.50;;
42760;SDS011;31672;47.638;19.026;2023-04-25T13:26:43;1.15;;;0.88;;
42760;SDS011;31672;47.638;19.026;2023-04-25T13:31:46;1.00;;;0.63;;
42760;SDS011;31672;47.638;19.026;2023-04-25T13:36:49;1.67;;;0.50;;
42760;SDS011;31672;47.638;19.026;2023-04-25T13:41:52;0.90;;;0.50;;
42760;SDS011;31672;47.638;19.026;2023-04-25T13:46:55;0.65;;;0.43;;
42760;SDS011;31672;47.638;19.026;2023-04-25T13:51:58;0.82;;;0.60;;
42760;SDS011;31672;47.638;19.026;2023-04-25T13:57:01;1.73;;;0.80;;
42760;SDS011;31672;47.638;19.026;2023-04-25T14:02:04;0.80;;;0.55;;
42760;SDS011;31672;47.638;19.026;2023-04-25T14:07:07;0.80;;;0.50;;
42760;SDS011;31672;47.638;19.026;2023-04-25T14:12:11;1.88;;;0.60;;
42760;SDS011;31672;47.638;19.026;2023-04-25T14:17:14;1.48;;;0.70;;
42760;SDS011;31672;47.638;19.026;2023-04-25T14:22:17;0.95;;;0.52;;
42760;SDS011;31672;47.638;19.026;2023-04-25T14:27:21;1.20;;;0.77;;
42760;SDS011;31672;47.638;19.026;2023-04-25T14:32:24;1.48;;;0.50;;
42760;SDS011;31672;47.638;19.026;2023-04-25T14:37:28;1.13;;;0.65;;
42760;SDS011;31672;47.638;19.026;2023-04-25T14:42:30;1.05;;;0.52;;
42760;SDS011;31672;47.638;19.026;2023-04-25T14:47:38;0.90;;;0.50;;
42760;SDS011;31672;47.638;19.026;2023-04-25T14:52:41;1.00;;;0.50;;
42760;SDS011;31672;47.638;19.026;2023-04-25T14:57:45;0.95;;;0.55;;
42760;SDS011;31672;47.638;19.026;2023-04-25T15:02:48;0.88;;;0.70;;
42760;SDS011;31672;47.638;19.026;2023-04-25T15:07:52;1.10;;;0.63;;
42760;SDS011;31672;47.638;19.026;2023-04-25T15:12:55;1.10;;;0.50;;
42760;SDS011;31672;47.638;19.026;2023-04-25T15:17:58;1.50;;;0.55;;
42760;SDS011;31672;47.638;19.026;2023-04-25T15:23:02;1.23;;;0.80;;
42760;SDS011;31672;47.638;19.026;2023-04-25T15:28:07;1.52;;;0.98;;
42760;SDS011;31672;47.638;19.026;2023-04-25T15:33:10;2.28;;;1.10;;
42760;SDS011;31672;47.638;19.026;2023-04-25T15:38:13;3.80;;;2.08;;
42760;SDS011;31672;47.638;19.026;2023-04-25T15:43:16;4.28;;;1.60;;
42760;SDS011;31672;47.638;19.026;2023-04-25T15:48:19;2.40;;;0.90;;
42760;SDS011;31672;47.638;19.026;2023-04-25T15:53:22;1.40;;;0.90;;
42760;SDS011;31672;47.638;19.026;2023-04-25T15:58:25;6.00;;;1.38;;
42760;SDS011;31672;47.638;19.026;2023-04-25T16:03:28;1.83;;;1.40;;
42760;SDS011;31672;47.638;19.026;2023-04-25T16:08:37;2.75;;;1.60;;
42760;SDS011;31672;47.638;19.026;2023-04-25T16:13:40;5.32;;;2.30;;
42760;SDS011;31672;47.638;19.026;2023-04-25T16:18:43;5.20;;;2.20;;
42760;SDS011;31672;47.638;19.026;2023-04-25T16:23:46;4.15;;;2.08;;
42760;SDS011;31672;47.638;19.026;2023-04-25T16:28:50;3.97;;;2.35;;
42760;SDS011;31672;47.638;19.026;2023-04-25T16:33:53;3.63;;;2.30;;
42760;SDS011;31672;47.638;19.026;2023-04-25T16:38:57;5.45;;;3.38;;
42760;SDS011;31672;47.638;19.026;2023-04-25T16:44:02;4.28;;;2.78;;
42760;SDS011;31672;47.638;19.026;2023-04-25T16:49:07;4.37;;;2.27;;
42760;SDS011;31672;47.638;19.026;2023-04-25T16:54:10;6.03;;;3.37;;
42760;SDS011;31672;47.638;19.026;2023-04-25T16:59:14;6.10;;;3.67;;
42760;SDS011;31672;47.638;19.026;2023-04-25T17:04:17;4.17;;;2.43;;
42760;SDS011;31672;47.638;19.026;2023-04-25T17:09:20;4.50;;;1.73;;
42760;SDS011;31672;47.638;19.026;2023-04-25T17:14:23;2.07;;;1.40;;
42760;SDS011;31672;47.638;19.026;2023-04-25T17:19:26;2.70;;;1.77;;
42760;SDS011;31672;47.638;19.026;2023-04-25T17:24:29;2.67;;;1.93;;
42760;SDS011;31672;47.638;19.026;2023-04-25T17:29:33;3.03;;;1.93;;
42760;SDS011;31672;47.638;19.026;2023-04-25T17:34:36;2.87;;;1.70;;
42760;SDS011;31672;47.638;19.026;2023-04-25T17:39:44;3.20;;;1.90;;
42760;SDS011;31672;47.638;19.026;2023-04-25T17:44:48;3.93;;;1.93;;
42760;SDS011;31672;47.638;19.026;2023-04-25T17:49:51;3.40;;;2.23;;
42760;SDS011;31672;47.638;19.026;2023-04-25T17:54:57;9.90;;;3.67;;
42760;SDS011;31672;47.638;19.026;2023-04-25T18:00:00;12.27;;;4.00;;
42760;SDS011;31672;47.638;19.026;2023-04-25T18:05:08;4.63;;;2.50;;
42760;SDS011;31672;47.638;19.026;2023-04-25T18:10:13;3.10;;;2.00;;
42760;SDS011;31672;47.638;19.026;2023-04-25T18:15:16;2.97;;;2.57;;
42760;SDS011;31672;47.638;19.026;2023-04-25T18:20:19;2.60;;;1.80;;
42760;SDS011;31672;47.638;19.026;2023-04-25T18:25:23;3.33;;;2.30;;
42760;SDS011;31672;47.638;19.026;2023-04-25T18:30:27;3.20;;;1.63;;
42760;SDS011;31672;47.638;19.026;2023-04-25T18:35:32;5.37;;;2.70;;
42760;SDS011;31672;47.638;19.026;2023-04-25T18:40:41;2.97;;;1.90;;
42760;SDS011;31672;47.638;19.026;2023-04-25T18:46:01;5.30;;;3.70;;
42760;SDS011;31672;47.638;19.026;2023-04-25T18:51:04;3.83;;;2.80;;
42760;SDS011;31672;47.638;19.026;2023-04-25T18:56:07;3.53;;;2.27;;
42760;SDS011;31672;47.638;19.026;2023-04-25T19:01:11;3.53;;;2.57;;
42760;SDS011;31672;47.638;19.026;2023-04-25T19:06:14;3.20;;;2.00;;
42760;SDS011;31672;47.638;19.026;2023-04-25T19:11:18;4.00;;;2.13;;
42760;SDS011;31672;47.638;19.026;2023-04-25T19:16:22;3.23;;;1.87;;
42760;SDS011;31672;47.638;19.026;2023-04-25T19:21:27;3.80;;;1.90;;
42760;SDS011;31672;47.638;19.026;2023-04-25T19:26:30;4.23;;;2.37;;
42760;SDS011;31672;47.638;19.026;2023-04-25T19:31:34;5.57;;;2.63;;
42760;SDS011;31672;47.638;19.026;2023-04-25T19:36:39;4.83;;;2.33;;
42760;SDS011;31672;47.638;19.026;2023-04-25T19:41:43;5.80;;;2.73;;
42760;SDS011;31672;47.638;19.026;2023-04-25T19:46:46;4.47;;;2.47;;
42760;SDS011;31672;47.638;19.026;2023-04-25T19:51:50;3.10;;;1.87;;
42760;SDS011;31672;47.638;19.026;2023-04-25T19:56:54;3.03;;;1.90;;
42760;SDS011;31672;47.638;19.026;2023-04-25T20:01:58;4.37;;;2.27;;
42760;SDS011;31672;47.638;19.026;2023-04-25T20:07:02;2.93;;;2.07;;
42760;SDS011;31672;47.638;19.026;2023-04-25T20:12:05;2.17;;;1.60;;
42760;SDS011;31672;47.638;19.026;2023-04-25T20:17:09;3.83;;;1.70;;
42760;SDS011;31672;47.638;19.026;2023-04-25T20:22:12;2.77;;;1.60;;
42760;SDS011;31672;47.638;19.026;2023-04-25T20:27:15;4.43;;;1.90;;
42760;SDS011;31672;47.638;19.026;2023-04-25T20:32:19;4.53;;;1.97;;
42760;SDS011;31672;47.638;19.026;2023-04-25T20:37:22;4.40;;;2.70;;
42760;SDS011;31672;47.638;19.026;2023-04-25T20:42:25;3.70;;;2.20;;
42760;SDS011;31672;47.638;19.026;2023-04-25T20:47:28;10.23;;;5.07;;
42760;SDS011;31672;47.638;19.026;2023-04-25T20:52:31;5.97;;;3.93;;
42760;SDS011;31672;47.638;19.026;2023-04-25T20:57:34;5.63;;;3.50;;
42760;SDS011;31672;47.638;19.026;2023-04-25T21:02:38;5.30;;;2.70;;
42760;SDS011;31672;47.638;19.026;2023-04-25T21:07:41;5.17;;;2.50;;
42760;SDS011;31672;47.638;19.026;2023-04-25T21:12:44;5.70;;;2.70;;
42760;SDS011;31672;47.638;19.026;2023-04-25T21:17:51;4.30;;;2.33;;
42760;SDS011;31672;47.638;19.026;2023-04-25T21:22:54;3.33;;;2.00;;
42760;SDS011;31672;47.638;19.026;2023-04-25T21:27:57;2.87;;;1.80;;
42760;SDS011;31672;47.638;19.026;2023-04-25T21:33:01;4.33;;;2.10;;
42760;SDS011;31672;47.638;19.026;2023-04-25T21:38:04;4.00;;;2.30;;
42760;SDS011;31672;47.638;19.026;2023-04-25T21:43:08;4.97;;;3.27;;
42760;SDS011;31672;47.638;19.026;2023-04-25T21:48:11;4.63;;;2.43;;
42760;SDS011;31672;47.638;19.026;2023-04-25T21:53:14;2.70;;;2.00;;
42760;SDS011;31672;47.638;19.026;2023-04-25T21:58:18;6.33;;;2.40;;
42760;SDS011;31672;47.638;19.026;2023-04-25T22:03:21;4.30;;;2.60;;
42760;SDS011;31672;47.638;19.026;2023-04-25T22:08:24;3.20;;;2.37;;
42760;SDS011;31672;47.638;19.026;2023-04-25T22:13:27;3.63;;;2.27;;
42760;SDS011;31672;47.638;19.026;2023-04-25T22:18:30;3.23;;;2.30;;
42760;SDS011;31672;47.638;19.026;2023-04-25T22:23:33;3.17;;;2.30;;
42760;SDS011;31672;47.638;19.026;2023-04-25T22:28:36;4.07;;;2.70;;
42760;SDS011;31672;47.638;19.026;2023-04-25T22:33:41;3.53;;;2.77;;
42760;SDS011;31672;47.638;19.026;2023-04-25T22:38:48;3.93;;;2.57;;
42760;SDS011;31672;47.638;19.026;2023-04-25T22:43:52;3.50;;;2.37;;
42760;SDS011;31672;47.638;19.026;2023-04-25T22:48:55;4.83;;;3.17;;
42760;SDS011;31672;47.638;19.026;2023-04-25T22:53:58;4.83;;;2.90;;
42760;SDS011;31672;47.638;19.026;2023-04-25T22:59:02;3.23;;;2.60;;
42760;SDS011;31672;47.638;19.026;2023-04-25T23:04:05;4.73;;;3.20;;
42760;SDS011;31672;47.638;19.026;2023-04-25T23:09:09;3.63;;;2.77;;
42760;SDS011;31672;47.638;19.026;2023-04-25T23:14:13;5.63;;;3.60;;
42760;SDS011;31672;47.638;19.026;2023-04-25T23:19:16;6.20;;;3.17;;
42760;SDS011;31672;47.638;19.026;2023-04-25T23:24:19;6.00;;;3.53;;
42760;SDS011;31672;47.638;19.026;2023-04-25T23:29:22;7.37;;;3.83;;
42760;SDS011;31672;47.638;19.026;2023-04-25T23:34:28;5.30;;;3.50;;
42760;SDS011;31672;47.638;19.026;2023-04-25T23:39:32;5.17;;;3.23;;
42760;SDS011;31672;47.638;19.026;2023-04-25T23:44:35;4.23;;;2.93;;
42760;SDS011;31672;47.638;19.026;2023-04-25T23:49:38;3.77;;;3.27;;
42760;SDS011;31672;47.638;19.026;2023-04-25T23:54:42;5.37;;;3.33;;
42760;SDS011;31672;47.638;19.026;2023-04-25T23:59:45;4.63;;;3.17;;
